sensor_id;sensor_type;location;lat;lon;timestamp;pressure;altitude;pressure_sealevel;temperature;humidity
29239;BME280;16267;48.194;11.546;2023-02-15T00:03:03;97327.22;;;1.28;88.09
29239;BME280;16267;48.194;11.546;2023-02-15T00:06:56;97324.09;;;1.26;87.43
29239;BME280;16267;48.194;11.546;2023-02-15T00:10:39;97326.56;;;1.23;87.52
29239;BME280;16267;48.194;11.546;2023-02-15T00:14:33;97333.88;;;1.17;88.03
29239;BME280;16267;48.194;11.546;2023-02-15T00:16:59;97328.88;;;1.16;87.88
29239;BME280;16267;48.194;11.546;2023-02-15T00:19:25;97319.06;;;1.16;87.99
29239;BME280;16267;48.194;11.546;2023-02-15T00:21:51;97318.63;;;1.14;88.06
29239;BME280;16267;48.194;11.546;2023-02-15T00:24:19;97309.09;;;1.13;88.11
29239;BME280;16267;48.194;11.546;2023-02-15T00:26:46;97314.09;;;1.15;88.32
29239;BME280;16267;48.194;11.546;2023-02-15T00:29:14;97310.97;;;1.13;88.04
29239;BME280;16267;48.194;11.546;2023-02-15T00:31:40;97321.56;;;1.13;88.04
29239;BME280;16267;48.194;11.546;2023-02-15T00:34:21;97322.94;;;1.10;87.84
29239;BME280;16267;48.194;11.546;2023-02-15T00:36:48;97318.25;;;1.07;87.91
29239;BME280;16267;48.194;11.546;2023-02-15T00:39:15;97316.22;;;1.04;87.26
29239;BME280;16267;48.194;11.546;2023-02-15T00:41:41;97319.16;;;1.02;88.41
29239;BME280;16267;48.194;11.546;2023-02-15T00:44:07;97314.19;;;1.01;88.18
29239;BME280;16267;48.194;11.546;2023-02-15T00:46:34;97319.00;;;0.99;88.16
29239;BME280;16267;48.194;11.546;2023-02-15T00:49:00;97319.78;;;0.99;88.49
29239;BME280;16267;48.194;11.546;2023-02-15T00:51:28;97313.56;;;0.95;88.03
29239;BME280;16267;48.194;11.546;2023-02-15T00:53:54;97306.69;;;0.94;88.58
29239;BME280;16267;48.194;11.546;2023-02-15T00:56:20;97304.66;;;0.91;88.20
29239;BME280;16267;48.194;11.546;2023-02-15T00:58:46;97299.97;;;0.88;88.62
29239;BME280;16267;48.194;11.546;2023-02-15T01:01:16;97300.31;;;0.86;88.54
29239;BME280;16267;48.194;11.546;2023-02-15T01:03:42;97298.28;;;0.83;88.19
29239;BME280;16267;48.194;11.546;2023-02-15T01:06:12;97302.75;;;0.83;88.87
29239;BME280;16267;48.194;11.546;2023-02-15T01:08:38;97290.63;;;0.82;89.05
29239;BME280;16267;48.194;11.546;2023-02-15T01:11:15;97286.25;;;0.77;88.73
29239;BME280;16267;48.194;11.546;2023-02-15T01:13:41;97282.53;;;0.78;88.96
29239;BME280;16267;48.194;11.546;2023-02-15T01:16:08;97287.06;;;0.78;88.80
29239;BME280;16267;48.194;11.546;2023-02-15T01:18:35;97273.34;;;0.76;89.08
29239;BME280;16267;48.194;11.546;2023-02-15T01:21:13;97279.41;;;0.76;88.64
29239;BME280;16267;48.194;11.546;2023-02-15T01:23:41;97272.88;;;0.74;88.49
29239;BME280;16267;48.194;11.546;2023-02-15T01:26:08;97272.72;;;0.70;88.25
29239;BME280;16267;48.194;11.546;2023-02-15T01:28:35;97272.22;;;0.68;88.85
29239;BME280;16267;48.194;11.546;2023-02-15T01:31:15;97266.66;;;0.70;88.99
29239;BME280;16267;48.194;11.546;2023-02-15T01:33:42;97277.16;;;0.61;87.67
29239;BME280;16267;48.194;11.546;2023-02-15T01:36:08;97275.00;;;0.63;89.45
29239;BME280;16267;48.194;11.546;2023-02-15T01:38:35;97271.41;;;0.59;88.18
29239;BME280;16267;48.194;11.546;2023-02-15T01:41:01;97263.00;;;0.57;88.12
29239;BME280;16267;48.194;11.546;2023-02-15T01:44:03;97263.78;;;0.57;88.97
29239;BME280;16267;48.194;11.546;2023-02-15T01:46:37;97254.31;;;0.56;88.99
29239;BME280;16267;48.194;11.546;2023-02-15T01:49:14;97256.63;;;0.58;89.20
29239;BME280;16267;48.194;11.546;2023-02-15T01:51:43;97252.44;;;0.57;88.85
29239;BME280;16267;48.194;11.546;2023-02-15T01:54:25;97250.56;;;0.57;88.77
29239;BME280;16267;48.194;11.546;2023-02-15T01:56:55;97258.50;;;0.57;88.88
29239;BME280;16267;48.194;11.546;2023-02-15T01:59:23;97253.53;;;0.56;88.63
29239;BME280;16267;48.194;11.546;2023-02-15T02:01:57;97253.81;;;0.54;88.36
29239;BME280;16267;48.194;11.546;2023-02-15T02:04:50;97244.03;;;0.55;88.77
29239;BME280;16267;48.194;11.546;2023-02-15T02:07:20;97242.16;;;0.55;88.60
29239;BME280;16267;48.194;11.546;2023-02-15T02:09:48;97239.84;;;0.54;88.21
29239;BME280;16267;48.194;11.546;2023-02-15T02:12:16;97239.50;;;0.55;88.89
29239;BME280;16267;48.194;11.546;2023-02-15T02:14:45;97240.59;;;0.54;88.46
29239;BME280;16267;48.194;11.546;2023-02-15T02:17:23;97236.09;;;0.55;88.23
29239;BME280;16267;48.194;11.546;2023-02-15T02:20:17;97237.19;;;0.54;88.06
29239;BME280;16267;48.194;11.546;2023-02-15T02:34:15;97238.56;;;0.51;87.71
29239;BME280;16267;48.194;11.546;2023-02-15T02:39:55;97233.91;;;0.48;87.60
29239;BME280;16267;48.194;11.546;2023-02-15T02:45:09;97230.50;;;0.48;87.85
29239;BME280;16267;48.194;11.546;2023-02-15T02:47:50;97228.91;;;0.47;87.65
29239;BME280;16267;48.194;11.546;2023-02-15T02:50:26;97231.56;;;0.47;87.77
29239;BME280;16267;48.194;11.546;2023-02-15T02:52:55;97230.28;;;0.44;87.55
29239;BME280;16267;48.194;11.546;2023-02-15T02:58:19;97239.91;;;0.40;87.92
29239;BME280;16267;48.194;11.546;2023-02-15T03:01:00;97229.66;;;0.38;87.67
29239;BME280;16267;48.194;11.546;2023-02-15T03:03:43;97224.38;;;0.38;87.81
29239;BME280;16267;48.194;11.546;2023-02-15T03:06:15;97220.66;;;0.39;88.34
29239;BME280;16267;48.194;11.546;2023-02-15T03:08:50;97228.59;;;0.39;88.07
29239;BME280;16267;48.194;11.546;2023-02-15T03:11:16;97232.00;;;0.40;87.95
29239;BME280;16267;48.194;11.546;2023-02-15T03:13:44;97221.91;;;0.42;88.10
29239;BME280;16267;48.194;11.546;2023-02-15T03:16:12;97220.03;;;0.42;87.98
29239;BME280;16267;48.194;11.546;2023-02-15T03:19:32;97224.56;;;0.42;87.52
29239;BME280;16267;48.194;11.546;2023-02-15T03:21:57;97229.78;;;0.11;87.64
29239;BME280;16267;48.194;11.546;2023-02-15T03:24:58;97220.09;;;0.20;90.45
29239;BME280;16267;48.194;11.546;2023-02-15T03:27:32;97222.13;;;0.23;90.18
29239;BME280;16267;48.194;11.546;2023-02-15T03:30:00;97223.75;;;0.10;89.31
29239;BME280;16267;48.194;11.546;2023-02-15T03:32:29;97225.00;;;0.13;90.30
29239;BME280;16267;48.194;11.546;2023-02-15T03:34:57;97224.72;;;0.14;91.08
29239;BME280;16267;48.194;11.546;2023-02-15T03:37:49;97220.97;;;0.15;91.22
29239;BME280;16267;48.194;11.546;2023-02-15T03:40:27;97217.72;;;0.18;91.05
29239;BME280;16267;48.194;11.546;2023-02-15T03:43:39;97221.94;;;0.19;90.87
29239;BME280;16267;48.194;11.546;2023-02-15T03:46:43;97226.16;;;0.20;90.53
29239;BME280;16267;48.194;11.546;2023-02-15T03:49:22;97236.09;;;0.24;90.19
29239;BME280;16267;48.194;11.546;2023-02-15T03:51:53;97227.09;;;0.25;90.08
29239;BME280;16267;48.194;11.546;2023-02-15T03:54:27;97225.25;;;0.25;89.90
29239;BME280;16267;48.194;11.546;2023-02-15T03:57:34;97229.91;;;0.28;89.51
29239;BME280;16267;48.194;11.546;2023-02-15T04:00:24;97220.13;;;0.29;89.09
29239;BME280;16267;48.194;11.546;2023-02-15T04:05:43;97225.41;;;0.29;88.57
29239;BME280;16267;48.194;11.546;2023-02-15T04:08:10;97221.69;;;0.30;88.42
29239;BME280;16267;48.194;11.546;2023-02-15T04:10:36;97219.66;;;0.27;88.08
29239;BME280;16267;48.194;11.546;2023-02-15T04:13:38;97225.69;;;0.27;88.85
29239;BME280;16267;48.194;11.546;2023-02-15T04:16:04;97222.59;;;0.25;88.14
29239;BME280;16267;48.194;11.546;2023-02-15T04:18:48;97224.34;;;0.07;87.21
29239;BME280;16267;48.194;11.546;2023-02-15T04:21:32;97221.38;;;0.00;89.53
29239;BME280;16267;48.194;11.546;2023-02-15T04:24:18;97224.59;;;-0.03;90.67
29239;BME280;16267;48.194;11.546;2023-02-15T04:27:03;97228.53;;;-0.14;90.51
29239;BME280;16267;48.194;11.546;2023-02-15T04:29:30;97231.66;;;-0.12;91.60
29239;BME280;16267;48.194;11.546;2023-02-15T04:31:58;97231.06;;;-0.09;92.22
29239;BME280;16267;48.194;11.546;2023-02-15T04:34:24;97235.28;;;-0.08;92.18
29239;BME280;16267;48.194;11.546;2023-02-15T04:36:50;97233.09;;;-0.06;92.33
29239;BME280;16267;48.194;11.546;2023-02-15T04:39:18;97229.41;;;-0.05;92.37
29239;BME280;16267;48.194;11.546;2023-02-15T04:41:44;97233.88;;;-0.06;91.95
29239;BME280;16267;48.194;11.546;2023-02-15T04:44:11;97224.13;;;-0.05;91.92
29239;BME280;16267;48.194;11.546;2023-02-15T04:46:37;97235.13;;;-0.03;92.23
29239;BME280;16267;48.194;11.546;2023-02-15T04:49:03;97226.44;;;-0.04;91.04
29239;BME280;16267;48.194;11.546;2023-02-15T04:51:29;97222.44;;;-0.01;91.47
29239;BME280;16267;48.194;11.546;2023-02-15T04:53:55;97222.44;;;-0.01;91.08
29239;BME280;16267;48.194;11.546;2023-02-15T04:56:22;97227.53;;;-0.05;90.75
29239;BME280;16267;48.194;11.546;2023-02-15T04:58:48;97218.53;;;-0.04;91.69
29239;BME280;16267;48.194;11.546;2023-02-15T05:01:14;97220.88;;;-0.02;91.78
29239;BME280;16267;48.194;11.546;2023-02-15T05:03:40;97224.78;;;0.01;91.80
29239;BME280;16267;48.194;11.546;2023-02-15T05:06:05;97228.19;;;0.01;91.46
29239;BME280;16267;48.194;11.546;2023-02-15T05:08:32;97227.88;;;0.03;91.13
29239;BME280;16267;48.194;11.546;2023-02-15T05:10:57;97227.59;;;0.04;91.10
29239;BME280;16267;48.194;11.546;2023-02-15T05:13:23;97221.06;;;0.02;90.65
29239;BME280;16267;48.194;11.546;2023-02-15T05:15:53;97227.53;;;-0.05;91.21
29239;BME280;16267;48.194;11.546;2023-02-15T05:18:22;97230.28;;;-0.10;90.43
29239;BME280;16267;48.194;11.546;2023-02-15T05:20:48;97227.81;;;-0.06;92.30
29239;BME280;16267;48.194;11.546;2023-02-15T05:23:14;97221.16;;;-0.04;92.63
29239;BME280;16267;48.194;11.546;2023-02-15T05:25:40;97222.25;;;-0.05;92.42
29239;BME280;16267;48.194;11.546;2023-02-15T05:28:27;97223.91;;;-0.09;91.36
29239;BME280;16267;48.194;11.546;2023-02-15T05:33:30;97228.03;;;-0.03;92.65
29239;BME280;16267;48.194;11.546;2023-02-15T05:35:56;97235.75;;;-0.06;91.08
29239;BME280;16267;48.194;11.546;2023-02-15T05:38:21;97246.19;;;-0.01;92.08
29239;BME280;16267;48.194;11.546;2023-02-15T05:40:47;97234.56;;;0.00;92.13
29239;BME280;16267;48.194;11.546;2023-02-15T05:43:13;97236.59;;;0.03;91.92
29239;BME280;16267;48.194;11.546;2023-02-15T05:45:38;97232.09;;;0.04;91.65
29239;BME280;16267;48.194;11.546;2023-02-15T05:48:05;97227.31;;;0.06;91.54
29239;BME280;16267;48.194;11.546;2023-02-15T05:50:30;97223.56;;;0.07;91.47
29239;BME280;16267;48.194;11.546;2023-02-15T05:52:56;97228.69;;;0.03;90.45
29239;BME280;16267;48.194;11.546;2023-02-15T05:55:22;97223.41;;;0.03;90.72
29239;BME280;16267;48.194;11.546;2023-02-15T05:57:48;97234.41;;;0.05;91.22
29239;BME280;16267;48.194;11.546;2023-02-15T06:00:28;97236.28;;;0.05;91.57
29239;BME280;16267;48.194;11.546;2023-02-15T06:03:20;97240.31;;;0.02;91.37
29239;BME280;16267;48.194;11.546;2023-02-15T06:06:18;97237.66;;;0.02;91.58
29239;BME280;16267;48.194;11.546;2023-02-15T06:08:44;97234.56;;;0.00;91.90
29239;BME280;16267;48.194;11.546;2023-02-15T06:11:14;97242.94;;;0.02;92.84
29239;BME280;16267;48.194;11.546;2023-02-15T06:13:41;97236.41;;;-0.01;92.82
29239;BME280;16267;48.194;11.546;2023-02-15T06:20:06;97243.25;;;0.01;93.70
29239;BME280;16267;48.194;11.546;2023-02-15T06:23:00;97232.69;;;0.01;94.18
29239;BME280;16267;48.194;11.546;2023-02-15T06:25:28;97250.09;;;0.02;94.17
29239;BME280;16267;48.194;11.546;2023-02-15T06:27:54;97245.59;;;0.02;94.13
29239;BME280;16267;48.194;11.546;2023-02-15T06:30:20;97247.16;;;0.03;94.05
29239;BME280;16267;48.194;11.546;2023-02-15T06:32:46;97248.72;;;0.04;94.29
29239;BME280;16267;48.194;11.546;2023-02-15T06:35:11;97249.31;;;0.01;94.09
29239;BME280;16267;48.194;11.546;2023-02-15T06:37:38;97250.88;;;0.02;94.91
29239;BME280;16267;48.194;11.546;2023-02-15T06:40:05;97253.22;;;0.04;94.98
29239;BME280;16267;48.194;11.546;2023-02-15T06:42:31;97247.94;;;0.04;94.73
29239;BME280;16267;48.194;11.546;2023-02-15T06:44:57;97251.34;;;0.04;94.54
29239;BME280;16267;48.194;11.546;2023-02-15T06:47:24;97262.78;;;-0.01;93.77
29239;BME280;16267;48.194;11.546;2023-02-15T06:49:50;97261.91;;;0.04;95.93
29239;BME280;16267;48.194;11.546;2023-02-15T06:52:15;97258.97;;;0.06;95.90
29239;BME280;16267;48.194;11.546;2023-02-15T06:54:41;97257.56;;;0.08;96.11
29239;BME280;16267;48.194;11.546;2023-02-15T06:57:07;97259.94;;;0.10;95.77
29239;BME280;16267;48.194;11.546;2023-02-15T06:59:34;97259.31;;;0.13;95.14
29239;BME280;16267;48.194;11.546;2023-02-15T07:02:00;97257.94;;;0.15;95.15
29239;BME280;16267;48.194;11.546;2023-02-15T07:04:26;97258.13;;;0.19;94.97
29239;BME280;16267;48.194;11.546;2023-02-15T07:06:54;97259.69;;;0.20;94.51
29239;BME280;16267;48.194;11.546;2023-02-15T07:09:20;97259.38;;;0.21;93.47
29239;BME280;16267;48.194;11.546;2023-02-15T07:11:46;97261.72;;;0.23;93.89
29239;BME280;16267;48.194;11.546;2023-02-15T07:14:31;97260.34;;;0.26;93.85
29239;BME280;16267;48.194;11.546;2023-02-15T07:16:57;97250.25;;;0.28;93.58
29239;BME280;16267;48.194;11.546;2023-02-15T07:19:23;97257.88;;;0.29;93.33
29239;BME280;16267;48.194;11.546;2023-02-15T07:21:48;97256.50;;;0.32;93.53
29239;BME280;16267;48.194;11.546;2023-02-15T07:24:14;97260.41;;;0.34;93.11
29239;BME280;16267;48.194;11.546;2023-02-15T07:26:40;97255.13;;;0.34;92.87
29239;BME280;16267;48.194;11.546;2023-02-15T07:29:06;97257.44;;;0.36;92.96
29239;BME280;16267;48.194;11.546;2023-02-15T07:31:31;97255.59;;;0.36;92.19
29239;BME280;16267;48.194;11.546;2023-02-15T07:33:57;97264.78;;;0.39;93.28
29239;BME280;16267;48.194;11.546;2023-02-15T07:36:23;97253.91;;;0.40;93.40
29239;BME280;16267;48.194;11.546;2023-02-15T07:38:48;97251.75;;;0.42;93.57
29239;BME280;16267;48.194;11.546;2023-02-15T07:41:15;97253.28;;;0.43;93.63
29239;BME280;16267;48.194;11.546;2023-02-15T07:43:44;97255.03;;;0.48;93.55
29239;BME280;16267;48.194;11.546;2023-02-15T07:46:15;97243.38;;;0.49;93.57
29239;BME280;16267;48.194;11.546;2023-02-15T07:48:43;97251.50;;;0.53;93.68
29239;BME280;16267;48.194;11.546;2023-02-15T07:51:10;97246.66;;;0.55;93.14
29239;BME280;16267;48.194;11.546;2023-02-15T07:53:38;97248.69;;;0.58;93.17
29239;BME280;16267;48.194;11.546;2023-02-15T07:56:09;97247.31;;;0.60;93.38
29239;BME280;16267;48.194;11.546;2023-02-15T07:58:35;97237.22;;;0.62;92.90
29239;BME280;16267;48.194;11.546;2023-02-15T08:01:30;97236.63;;;0.65;92.66
29239;BME280;16267;48.194;11.546;2023-02-15T08:03:57;97239.75;;;0.68;92.53
29239;BME280;16267;48.194;11.546;2023-02-15T08:06:26;97235.72;;;0.70;92.80
29239;BME280;16267;48.194;11.546;2023-02-15T08:08:51;97235.38;;;0.72;92.74
29239;BME280;16267;48.194;11.546;2023-02-15T08:11:30;97229.81;;;0.73;92.75
29239;BME280;16267;48.194;11.546;2023-02-15T08:14:09;97227.66;;;0.75;92.60
29239;BME280;16267;48.194;11.546;2023-02-15T08:16:50;97231.22;;;0.79;92.96
29239;BME280;16267;48.194;11.546;2023-02-15T08:19:23;97235.41;;;0.80;92.80
29239;BME280;16267;48.194;11.546;2023-02-15T08:21:51;97230.63;;;0.82;92.53
29239;BME280;16267;48.194;11.546;2023-02-15T08:24:22;97236.09;;;0.86;93.23
29239;BME280;16267;48.194;11.546;2023-02-15T08:26:49;97235.00;;;0.87;92.81
29239;BME280;16267;48.194;11.546;2023-02-15T08:29:16;97237.81;;;0.91;93.18
29239;BME280;16267;48.194;11.546;2023-02-15T08:31:43;97232.22;;;0.92;93.28
29239;BME280;16267;48.194;11.546;2023-02-15T08:34:13;97237.66;;;0.96;93.13
29239;BME280;16267;48.194;11.546;2023-02-15T08:36:39;97227.25;;;0.99;92.94
29239;BME280;16267;48.194;11.546;2023-02-15T08:39:06;97226.94;;;1.01;93.15
29239;BME280;16267;48.194;11.546;2023-02-15T08:41:35;97230.53;;;1.05;93.53
29239;BME280;16267;48.194;11.546;2023-02-15T08:44:05;97231.78;;;1.07;93.56
29239;BME280;16267;48.194;11.546;2023-02-15T08:46:34;97230.84;;;1.03;92.11
29239;BME280;16267;48.194;11.546;2023-02-15T08:49:02;97233.16;;;1.05;93.45
29239;BME280;16267;48.194;11.546;2023-02-15T08:51:31;97232.53;;;0.99;93.25
29239;BME280;16267;48.194;11.546;2023-02-15T08:54:01;97235.03;;;1.04;95.39
29239;BME280;16267;48.194;11.546;2023-02-15T08:56:31;97229.13;;;1.07;95.86
29239;BME280;16267;48.194;11.546;2023-02-15T08:58:58;97231.34;;;1.05;94.29
29239;BME280;16267;48.194;11.546;2023-02-15T09:01:30;97229.31;;;1.11;95.79
29239;BME280;16267;48.194;11.546;2023-02-15T09:04:05;97231.78;;;1.07;95.40
29239;BME280;16267;48.194;11.546;2023-02-15T09:06:34;97232.91;;;1.15;97.02
29239;BME280;16267;48.194;11.546;2023-02-15T09:09:00;97229.34;;;1.20;97.28
29239;BME280;16267;48.194;11.546;2023-02-15T09:11:28;97231.84;;;1.25;97.25
29239;BME280;16267;48.194;11.546;2023-02-15T09:13:55;97240.69;;;1.29;96.71
29239;BME280;16267;48.194;11.546;2023-02-15T09:16:23;97236.81;;;1.26;94.91
29239;BME280;16267;48.194;11.546;2023-02-15T09:18:50;97232.63;;;1.34;96.51
29239;BME280;16267;48.194;11.546;2023-02-15T09:21:20;97229.34;;;1.37;96.50
29239;BME280;16267;48.194;11.546;2023-02-15T09:23:49;97229.22;;;1.42;96.79
29239;BME280;16267;48.194;11.546;2023-02-15T09:26:21;97220.66;;;1.45;97.16
29239;BME280;16267;48.194;11.546;2023-02-15T09:28:52;97225.81;;;1.50;96.88
29239;BME280;16267;48.194;11.546;2023-02-15T09:31:21;97219.56;;;1.55;96.70
29239;BME280;16267;48.194;11.546;2023-02-15T09:33:48;97223.16;;;1.59;95.34
29239;BME280;16267;48.194;11.546;2023-02-15T09:38:40;97215.50;;;1.66;94.93
29239;BME280;16267;48.194;11.546;2023-02-15T09:55:42;97225.63;;;1.90;96.44
29239;BME280;16267;48.194;11.546;2023-02-15T09:58:23;97227.81;;;1.97;96.54
29239;BME280;16267;48.194;11.546;2023-02-15T10:04:00;97226.22;;;2.13;96.56
29239;BME280;16267;48.194;11.546;2023-02-15T10:07:03;97230.72;;;2.21;96.79
29239;BME280;16267;48.194;11.546;2023-02-15T10:09:53;97226.22;;;2.31;96.86
29239;BME280;16267;48.194;11.546;2023-02-15T10:26:47;97216.81;;;2.89;95.47
29239;BME280;16267;48.194;11.546;2023-02-15T10:29:35;97210.84;;;2.92;93.37
29239;BME280;16267;48.194;11.546;2023-02-15T10:32:25;97209.53;;;3.07;94.10
29239;BME280;16267;48.194;11.546;2023-02-15T10:40:32;97203.75;;;3.34;94.46
29239;BME280;16267;48.194;11.546;2023-02-15T11:01:05;97179.41;;;4.08;90.21
29239;BME280;16267;48.194;11.546;2023-02-15T11:06:08;97174.78;;;4.29;90.38
29239;BME280;16267;48.194;11.546;2023-02-15T11:08:57;97170.63;;;4.53;89.90
29239;BME280;16267;48.194;11.546;2023-02-15T11:11:31;97165.75;;;4.67;88.83
29239;BME280;16267;48.194;11.546;2023-02-15T11:14:01;97161.78;;;4.85;87.93
29239;BME280;16267;48.194;11.546;2023-02-15T11:16:34;97152.09;;;5.05;86.17
29239;BME280;16267;48.194;11.546;2023-02-15T11:19:13;97144.31;;;5.12;85.00
29239;BME280;16267;48.194;11.546;2023-02-15T11:21:49;97153.38;;;5.36;85.75
29239;BME280;16267;48.194;11.546;2023-02-15T11:24:19;97135.66;;;5.56;85.20
29239;BME280;16267;48.194;11.546;2023-02-15T11:26:59;97142.63;;;5.89;84.21
29239;BME280;16267;48.194;11.546;2023-02-15T11:29:33;97133.75;;;5.97;83.18
29239;BME280;16267;48.194;11.546;2023-02-15T11:32:21;97132.97;;;6.12;81.45
29239;BME280;16267;48.194;11.546;2023-02-15T11:35:27;97128.03;;;6.27;79.52
29239;BME280;16267;48.194;11.546;2023-02-15T11:38:22;97128.38;;;6.41;79.73
29239;BME280;16267;48.194;11.546;2023-02-15T11:40:57;97119.69;;;6.44;80.66
29239;BME280;16267;48.194;11.546;2023-02-15T11:43:50;97107.69;;;6.54;79.33
29239;BME280;16267;48.194;11.546;2023-02-15T11:46:19;97114.41;;;6.79;78.97
29239;BME280;16267;48.194;11.546;2023-02-15T11:48:47;97101.81;;;6.80;78.40
29239;BME280;16267;48.194;11.546;2023-02-15T11:51:18;97103.44;;;6.84;77.79
29239;BME280;16267;48.194;11.546;2023-02-15T11:53:45;97097.88;;;6.74;78.04
29239;BME280;16267;48.194;11.546;2023-02-15T11:56:38;97093.00;;;6.60;76.06
29239;BME280;16267;48.194;11.546;2023-02-15T11:59:14;97083.63;;;6.50;76.81
29239;BME280;16267;48.194;11.546;2023-02-15T12:01:45;97084.25;;;6.43;78.11
29239;BME280;16267;48.194;11.546;2023-02-15T12:04:32;97079.09;;;6.35;78.22
29239;BME280;16267;48.194;11.546;2023-02-15T12:07:17;97078.91;;;6.28;78.14
29239;BME280;16267;48.194;11.546;2023-02-15T12:12:31;97074.34;;;6.12;78.71
29239;BME280;16267;48.194;11.546;2023-02-15T12:15:06;97075.81;;;6.10;79.48
29239;BME280;16267;48.194;11.546;2023-02-15T12:17:50;97074.88;;;6.02;78.02
29239;BME280;16267;48.194;11.546;2023-02-15T12:22:58;97063.34;;;5.98;80.75
29239;BME280;16267;48.194;11.546;2023-02-15T12:26:00;97059.13;;;5.97;81.44
29239;BME280;16267;48.194;11.546;2023-02-15T12:28:40;97055.69;;;5.96;80.82
29239;BME280;16267;48.194;11.546;2023-02-15T12:31:21;97054.78;;;5.92;79.83
29239;BME280;16267;48.194;11.546;2023-02-15T12:33:52;97043.69;;;5.90;80.27
29239;BME280;16267;48.194;11.546;2023-02-15T12:36:22;97046.03;;;5.92;81.47
29239;BME280;16267;48.194;11.546;2023-02-15T12:42:41;97041.03;;;5.90;80.72
29239;BME280;16267;48.194;11.546;2023-02-15T12:45:08;97036.50;;;5.91;80.80
29239;BME280;16267;48.194;11.546;2023-02-15T12:47:44;97042.59;;;5.91;80.67
29239;BME280;16267;48.194;11.546;2023-02-15T12:50:22;97040.25;;;5.90;79.73
29239;BME280;16267;48.194;11.546;2023-02-15T12:52:50;97036.06;;;5.89;79.83
29239;BME280;16267;48.194;11.546;2023-02-15T12:55:27;97036.50;;;5.91;81.11
29239;BME280;16267;48.194;11.546;2023-02-15T12:58:19;97035.38;;;5.92;80.53
29239;BME280;16267;48.194;11.546;2023-02-15T13:00:46;97035.47;;;5.95;80.58
29239;BME280;16267;48.194;11.546;2023-02-15T13:03:21;97030.16;;;5.95;79.77
29239;BME280;16267;48.194;11.546;2023-02-15T13:05:54;97024.41;;;5.93;79.43
29239;BME280;16267;48.194;11.546;2023-02-15T13:08:25;97017.94;;;5.94;78.78
29239;BME280;16267;48.194;11.546;2023-02-15T13:11:07;97017.94;;;5.94;78.85
29239;BME280;16267;48.194;11.546;2023-02-15T13:13:53;97015.28;;;5.94;79.13
29239;BME280;16267;48.194;11.546;2023-02-15T13:16:40;97020.28;;;5.96;78.28
29239;BME280;16267;48.194;11.546;2023-02-15T13:19:33;97012.63;;;5.94;78.90
29239;BME280;16267;48.194;11.546;2023-02-15T13:22:06;97004.63;;;5.94;78.24
29239;BME280;16267;48.194;11.546;2023-02-15T13:24:44;96999.75;;;5.96;78.36
29239;BME280;16267;48.194;11.546;2023-02-15T13:27:16;97000.94;;;5.99;78.67
29239;BME280;16267;48.194;11.546;2023-02-15T13:29:48;96993.72;;;5.99;78.69
29239;BME280;16267;48.194;11.546;2023-02-15T13:32:34;96991.81;;;6.00;78.38
29239;BME280;16267;48.194;11.546;2023-02-15T13:35:04;96992.25;;;6.02;78.68
29239;BME280;16267;48.194;11.546;2023-02-15T13:40:42;96989.22;;;6.03;78.64
29239;BME280;16267;48.194;11.546;2023-02-15T13:43:48;96990.78;;;6.05;78.57
29239;BME280;16267;48.194;11.546;2023-02-15T14:00:13;97002.66;;;6.07;78.36
29239;BME280;16267;48.194;11.546;2023-02-15T14:03:12;97001.53;;;6.08;78.48
29239;BME280;16267;48.194;11.546;2023-02-15T14:09:31;96996.97;;;6.09;79.01
29239;BME280;16267;48.194;11.546;2023-02-15T14:15:26;96995.50;;;6.11;79.31
29239;BME280;16267;48.194;11.546;2023-02-15T14:23:57;96981.84;;;6.13;78.45
29239;BME280;16267;48.194;11.546;2023-02-15T14:29:56;96981.84;;;6.13;78.01
29239;BME280;16267;48.194;11.546;2023-02-15T14:32:42;96976.50;;;6.13;78.21
29239;BME280;16267;48.194;11.546;2023-02-15T14:35:18;96980.28;;;6.12;78.27
29239;BME280;16267;48.194;11.546;2023-02-15T14:41:12;96977.97;;;6.10;77.86
29239;BME280;16267;48.194;11.546;2023-02-15T14:43:56;96977.97;;;6.10;77.32
29239;BME280;16267;48.194;11.546;2023-02-15T14:49:17;96974.44;;;6.06;77.48
29239;BME280;16267;48.194;11.546;2023-02-15T15:05:19;96973.31;;;5.91;77.46
29239;BME280;16267;48.194;11.546;2023-02-15T15:07:54;96965.59;;;5.86;76.98
29239;BME280;16267;48.194;11.546;2023-02-15T15:10:45;96970.47;;;5.84;77.66
29239;BME280;16267;48.194;11.546;2023-02-15T15:15:56;96967.72;;;5.80;77.77
29239;BME280;16267;48.194;11.546;2023-02-15T15:18:46;96974.09;;;5.76;78.07
29239;BME280;16267;48.194;11.546;2023-02-15T15:21:51;96972.09;;;5.73;77.94
29239;BME280;16267;48.194;11.546;2023-02-15T15:27:40;96973.81;;;5.65;77.84
29239;BME280;16267;48.194;11.546;2023-02-15T15:39:19;96984.22;;;5.54;79.03
29239;BME280;16267;48.194;11.546;2023-02-15T15:47:36;96987.38;;;5.44;78.50
29239;BME280;16267;48.194;11.546;2023-02-15T15:50:24;96990.63;;;5.37;78.47
29239;BME280;16267;48.194;11.546;2023-02-15T15:52:58;96995.34;;;5.28;77.33
29239;BME280;16267;48.194;11.546;2023-02-15T15:55:27;96997.16;;;5.24;78.49
29239;BME280;16267;48.194;11.546;2023-02-15T15:58:06;96992.84;;;5.20;78.62
29239;BME280;16267;48.194;11.546;2023-02-15T16:00:49;96998.38;;;5.14;78.52
29239;BME280;16267;48.194;11.546;2023-02-15T16:03:26;96999.75;;;5.08;78.39
29239;BME280;16267;48.194;11.546;2023-02-15T16:05:53;96989.25;;;5.00;78.09
29239;BME280;16267;48.194;11.546;2023-02-15T16:08:35;97001.25;;;4.94;78.56
29239;BME280;16267;48.194;11.546;2023-02-15T16:11:17;96999.50;;;4.85;78.40
29239;BME280;16267;48.194;11.546;2023-02-15T16:13:44;97002.84;;;4.82;78.92
29239;BME280;16267;48.194;11.546;2023-02-15T16:16:13;97005.88;;;4.68;78.08
29239;BME280;16267;48.194;11.546;2023-02-15T16:18:39;97005.44;;;4.66;79.60
29239;BME280;16267;48.194;11.546;2023-02-15T16:21:23;97002.69;;;4.63;79.77
29239;BME280;16267;48.194;11.546;2023-02-15T16:29:32;97028.59;;;4.54;80.51
29239;BME280;16267;48.194;11.546;2023-02-15T16:32:04;97027.38;;;4.51;80.79
29239;BME280;16267;48.194;11.546;2023-02-15T16:34:32;97031.47;;;4.48;81.13
29239;BME280;16267;48.194;11.546;2023-02-15T16:37:19;97031.38;;;4.45;80.62